x

South Bermuda - 300 Nm Sse Of Bermuda (41049) Wave Buoy

5:50pm - Thu 21st Sep 2017 All times are UTC.

  • Sig Wave height 7.9ft
  • Swell Direction
  • Peak Period 10s
  • Average Period 8s
  • Wind
    11mph, 13mph gusts
  • Sea Temp 83°f
  • Air Temp 83°f
  • Sea Pressure 1016.8mb

More Historic Weather Station data

Upgrade to MSW Pro to gain access to the past 30 days of data for over 8000 Wavebouys and Weather Stations around the globe.

Join

Comparision Forecast

View Surf forecast
   
Thu 09/21 5:50pm 8ft 10s 8s 11 13 mph 1016.8mb 83f 83f
4:50pm 7ft 10s 7s 11 13 mph 1017mb 83f 82f
3:50pm 7ft 10s 7s 11 13 mph 1017.4mb 83f 82f
2:50pm 8ft 11s 8s 13 16 mph 1017.5mb 83f 83f
1:50pm 8ft 11s 8s 11 16 mph 1017.7mb 83f 82f
12:50pm 8ft 11s 8s 13 16 mph 1017.3mb 83f 82f
11:50am 7.5ft 11s 7s 11 13 mph 1017mb 83f 83f
10:50am 8ft 11s 8s 11 13 mph 1016.7mb 83f 82f
9:50am 7.5ft 10s 7s 13 16 mph 1016.7mb 83f 82f
8:50am 8ft 9s 7s 11 16 mph 1016.5mb 83f 82f
7:50am 8ft 11s 7s 13 16 mph 1016mb 83f 82f
6:50am 7.5ft 10s 7s 13 18 mph 1016.2mb 83f 82f
5:50am 7ft 10s 7s 13 20 mph 1016.6mb 83f 82f
4:50am 8ft 11s 8s 16 18 mph 1017mb 83f 82f
3:50am 7ft 10s 7s 16 18 mph 1017.6mb 83f 82f
2:50am 7ft 11s 7s 13 16 mph 1018.1mb 83f 82f
1:50am 7ft 10s 8s 13 16 mph 1018.2mb 83f 82f
12:50am 6ft 10s 7s 13 16 mph 1018.2mb 83f 82f
Wed 09/20 11:50pm 7ft 10s 7s 11 16 mph 1017.8mb 83f 82f
10:50pm 7ft 10s 8s 11 16 mph 1017.5mb 83f 83f
9:50pm 7.5ft 11s 7s 13 16 mph 1017.5mb 83f 82f
8:50pm 8ft 11s 8s 11 16 mph 1017.4mb 83f 83f
7:50pm 7ft 11s 7s 9 11 mph 1017.7mb 84f 80f
6:50pm 7ft 10s 7s 11 16 mph 1017.8mb 84f 83f
5:50pm 6.5ft 11s 7s 13 16 mph 1018.2mb 84f 83f
4:50pm 8ft 11s 8s 13 16 mph 1018.5mb 83f 83f
3:50pm 7ft 11s 7s 13 16 mph 1018.8mb 83f 83f
2:50pm 7ft 11s 8s 13 18 mph 1018.8mb 83f 83f
1:50pm 6.5ft 11s 7s 13 16 mph 1018.7mb 83f 83f
12:50pm 6ft 11s 7s 11 16 mph 1018.7mb 83f 83f
11:50am 6ft 11s 7s 13 16 mph 1018.4mb 83f 83f
10:50am 6ft 10s 7s 13 18 mph 1018.1mb 83f 82f
9:50am 6ft 10s 7s 16 20 mph 1017.5mb 83f 82f
8:50am 6ft 10s 7s 13 18 mph 1017.2mb 83f 82f
7:50am 6ft 11s 7s 13 18 mph 1017.4mb 83f 82f
6:50am 6.5ft 10s 7s 13 16 mph 1017.7mb 83f 82f
5:50am 6.5ft 11s 7s 13 16 mph 1018mb 83f 82f
4:50am 5.5ft 11s 6s 16 18 mph 1018.8mb 83f 82f
3:50am 6ft 10s 7s 16 20 mph 1018.9mb 83f 82f
2:50am 6ft 11s 6s 16 20 mph 1019.1mb 83f 82f
1:50am 5.5ft 10s 6s 16 20 mph 1019.5mb 83f 82f
12:50am 6ft 10s 7s 16 20 mph 1019.3mb 83f 82f
Tue 09/19 11:50pm 6ft 10s 7s 13 18 mph 1019mb 83f 82f
10:50pm 6ft 10s 7s 16 16 mph 1018.3mb 83f 83f
9:50pm 6ft 11s 7s 13 16 mph 1018mb 83f 83f
8:50pm 6ft 10s 7s 13 16 mph 1017.4mb 84f 83f
7:50pm 6ft 9s 7s 11 16 mph 1017.5mb 84f 83f
6:50pm 6ft 8s 7s 11 13 mph 1017.7mb 84f 83f
5:50pm 7ft 10s 7s 11 16 mph 1018.1mb 84f 83f
4:50pm 6ft 10s 7s 13 16 mph 1018.3mb 83f 83f
3:50pm 6ft 10s 6s 11 16 mph 1018.7mb 83f 83f
2:50pm 6ft 11s 6s 11 13 mph 1019mb 83f 83f
1:50pm 5ft 11s 6s 11 16 mph 1018.8mb 83f 83f
12:50pm 5.5ft 10s 6s 13 16 mph 1018.1mb 83f 83f
11:50am 5.5ft 9s 6s 11 13 mph 1017.5mb 83f 82f
10:50am 5ft 8s 6s 13 16 mph 1016.7mb 83f 82f
9:50am 5ft 8s 6s 16 20 mph 1016.3mb 83f 82f
8:50am 4.5ft 8s 6s 16 18 mph 1016mb 83f 82f
7:50am 5ft 9s 6s 18 20 mph 1015.7mb 83f 82f
6:50am 5ft 9s 6s 16 20 mph 1016mb 83f 82f
5:50am 4.5ft 10s 6s 16 20 mph 1016.5mb 83f 82f
4:50am 4.5ft 9s 6s 16 18 mph 1016.9mb 83f 83f
3:50am 4.5ft 9s 6s 13 16 mph 1017.3mb 83f 82f
2:50am 4.5ft 10s 6s 13 16 mph 1017.4mb 83f 82f
1:50am 4.5ft 10s 6s 13 16 mph 1017.4mb 83f 82f
12:50am 4.5ft 10s 6s 9 13 mph 1017.4mb 83f 83f
Mon 09/18 11:50pm 4.5ft 10s 6s 9 11 mph 1016.9mb 83f 82f
10:50pm 4.5ft 10s 6s 7 9 mph 1016.4mb 83f 82f
9:50pm 4.5ft 9s 6s 7 9 mph 1016.1mb 83f 83f
8:50pm 4.5ft 6s 6s 9 9 mph 1016mb 84f 83f
7:50pm 4.5ft 10s 6s 9 9 mph 1015.5mb 84f 83f
6:50pm 4.5ft 10s 6s 9 11 mph 1015.6mb 84f 83f
5:50pm 5ft 10s 6s 9 11 mph 1015.9mb 84f 83f
4:50pm 5ft 10s 6s 11 13 mph 1016.3mb 83f 83f
3:50pm 4.5ft 6s 6s 11 13 mph 1016.6mb 83f 83f
2:50pm 4.5ft 8s 5s 9 11 mph 1016.8mb 83f 83f
1:50pm 4.5ft 6s 5s 13 16 mph 1016.7mb 83f 82f
12:50pm 4.5ft 9s 5s 11 16 mph 1016.5mb 83f 82f
11:50am 4.5ft 6s 5s 11 13 mph 1016.3mb 83f 80f
10:50am 5ft 6s 5s 16 18 mph 1015.7mb 83f 81f
9:50am 4.5ft 9s 5s 16 20 mph 1015.2mb 83f 80f
8:50am 4.5ft 9s 6s 13 18 mph 1015.3mb 83f 82f
7:50am 4.5ft 9s 5s 11 18 mph 1015.3mb 83f 78f
6:50am 4.5ft 6s 5s 13 16 mph 1015.6mb 83f 81f
5:50am 4.5ft 9s 6s 13 18 mph 1016mb 83f 78f
4:50am 4.5ft 10s 6s 18 22 mph 1016.5mb 83f 82f
3:50am 4.5ft 9s 6s 13 16 mph 1016.9mb 83f 82f
2:50am 4ft 9s  -  13 16 mph 1017.3mb 83f 81f
1:50am 4.5ft 6s 6s 18 22 mph 1017.4mb 83f 79f
12:50am 4.5ft 10s 6s 9 11 mph 1017.5mb 83f 82f
Sun 09/17 11:50pm 4.5ft 6s 6s 9 9 mph 1016.9mb 83f 81f
10:50pm 4.5ft 9s 6s 7 7 mph 1016.6mb 83f 81f
9:50pm 4.5ft 6s 5s 11 13 mph 1016.6mb 83f 78f
8:50pm 4.5ft 6s 5s 20 22 mph 1016.4mb 83f 78f
7:50pm 4.5ft 6s 5s 13 16 mph 1016.4mb 83f 82f